Time;durP1;ratioP1;P1;durP2;ratioP2;P2;SDS_P1;SDS_P2;PMS_P1;PMS_P2;Temp;Humidity;BMP_temperature;BMP_pressure;BME280_temperature;BME280_humidity;BME280_pressure;Samples;Min_cycle;Max_cycle;Signal;HPM_P1;HPM_P2
2023/01/03 00:01:34;;;;;;;7.03;4.90;;;4.80;99.90;;;;;;5103481;28;20237;-89
2023/01/03 00:04:01;;;;;;;6.90;5.23;;;4.70;99.90;;;;;;5103673;28;20167;-91
2023/01/03 00:06:31;;;;;;;5.13;4.33;;;4.70;99.90;;;;;;5082980;28;20597;-86
2023/01/03 00:08:58;;;;;;;7.40;4.70;;;4.70;99.90;;;;;;5099889;28;20212;-91
2023/01/03 00:14:22;;;;;;;4.60;4.00;;;4.70;99.90;;;;;;5111476;28;20205;-94
2023/01/03 00:16:51;;;;;;;4.30;4.00;;;4.70;99.90;;;;;;5110685;28;20159;-94
2023/01/03 00:19:17;;;;;;;4.77;4.37;;;4.60;99.90;;;;;;5117180;28;20265;-92
2023/01/03 00:21:43;;;;;;;6.43;4.20;;;4.60;99.90;;;;;;5121565;28;20155;-90
2023/01/03 00:24:10;;;;;;;5.40;4.33;;;4.60;99.90;;;;;;5115733;28;20174;-89
2023/01/03 00:26:36;;;;;;;5.03;4.07;;;4.60;99.90;;;;;;5101605;28;20216;-90
2023/01/03 00:29:02;;;;;;;4.70;4.20;;;4.60;99.90;;;;;;5097999;28;20504;-86
2023/01/03 00:31:28;;;;;;;4.60;4.17;;;4.60;99.90;;;;;;5097290;28;20197;-92
2023/01/03 00:33:54;;;;;;;5.03;4.13;;;4.60;99.90;;;;;;5102463;28;20178;-92
2023/01/03 00:36:20;;;;;;;5.40;4.13;;;4.50;99.90;;;;;;5106890;28;20174;-95
2023/01/03 00:38:45;;;;;;;4.13;3.80;;;4.50;99.90;;;;;;5102690;28;20173;-94
2023/01/03 00:41:13;;;;;;;4.53;4.13;;;4.50;99.90;;;;;;5099964;28;20181;-86
2023/01/03 00:43:41;;;;;;;7.80;4.33;;;4.50;99.90;;;;;;5104248;28;20197;-85
2023/01/03 00:46:08;;;;;;;7.77;4.50;;;4.50;99.90;;;;;;5114658;28;20178;-84
2023/01/03 00:48:35;;;;;;;5.87;4.77;;;4.50;99.90;;;;;;5109266;28;20179;-84
2023/01/03 00:51:06;;;;;;;4.30;3.90;;;4.60;99.90;;;;;;5081678;28;20615;-87
2023/01/03 00:53:32;;;;;;;4.67;4.20;;;4.60;99.90;;;;;;5097885;28;20207;-84
2023/01/03 00:56:07;;;;;;;4.47;4.03;;;4.60;99.90;;;;;;5096724;28;20187;-85
2023/01/03 00:58:34;;;;;;;5.20;4.33;;;4.50;99.90;;;;;;5095623;28;20513;-86
2023/01/03 01:01:12;;;;;;;6.70;5.07;;;4.50;99.90;;;;;;5098642;28;20173;-85
2023/01/03 01:03:43;;;;;;;5.73;4.80;;;4.50;99.90;;;;;;5099081;28;20256;-95
2023/01/03 01:06:14;;;;;;;4.90;4.47;;;4.50;99.90;;;;;;5107279;28;20225;-93
2023/01/03 01:08:41;;;;;;;6.13;4.13;;;4.40;99.90;;;;;;5120005;28;20620;-93
2023/01/03 01:11:08;;;;;;;4.50;3.80;;;4.40;99.90;;;;;;5111874;28;20170;-91
2023/01/03 01:13:34;;;;;;;4.43;4.03;;;4.40;99.90;;;;;;5130999;28;20170;-91
2023/01/03 01:16:12;;;;;;;4.80;4.30;;;4.40;99.90;;;;;;5122539;28;20165;-94
2023/01/03 01:18:40;;;;;;;7.30;4.00;;;4.40;99.90;;;;;;5120826;28;20218;-92
2023/01/03 01:21:08;;;;;;;4.77;4.27;;;4.40;99.90;;;;;;5120310;28;20165;-93
2023/01/03 01:23:35;;;;;;;4.73;4.30;;;4.50;99.90;;;;;;5122141;28;20196;-94
2023/01/03 01:26:02;;;;;;;5.63;4.70;;;4.40;99.90;;;;;;5102678;28;20185;-93
2023/01/03 01:28:28;;;;;;;4.17;3.73;;;4.40;99.90;;;;;;5102658;28;20182;-90
2023/01/03 01:30:58;;;;;;;4.93;4.40;;;4.40;99.90;;;;;;5122018;28;20256;-93
2023/01/03 01:33:27;;;;;;;5.77;3.93;;;4.30;99.90;;;;;;5121352;28;20546;-90
2023/01/03 01:35:53;;;;;;;5.57;4.53;;;4.20;99.90;;;;;;5102498;28;20177;-90
2023/01/03 01:38:19;;;;;;;7.53;4.97;;;4.30;99.90;;;;;;5101546;28;20204;-94
2023/01/03 01:40:46;;;;;;;4.30;3.90;;;4.30;99.90;;;;;;5119641;28;20235;-89
2023/01/03 01:46:22;;;;;;;5.40;4.00;;;4.30;99.90;;;;;;5119259;28;20170;-92
2023/01/03 01:48:54;;;;;;;6.07;4.50;;;4.30;99.90;;;;;;5121815;28;20179;-86
2023/01/03 01:51:22;;;;;;;4.60;4.20;;;4.30;99.90;;;;;;5108224;28;20167;-91
2023/01/03 01:53:50;;;;;;;4.77;3.90;;;4.30;99.90;;;;;;5121770;28;20198;-90
2023/01/03 01:56:39;;;;;;;4.70;4.20;;;4.40;99.90;;;;;;5102393;28;20173;-90
2023/01/03 01:59:07;;;;;;;5.50;4.37;;;4.40;99.90;;;;;;5119508;28;20187;-90
2023/01/03 02:01:34;;;;;;;4.37;3.97;;;4.40;99.90;;;;;;5125601;28;20172;-91
2023/01/03 02:04:10;;;;;;;4.60;4.20;;;4.40;99.90;;;;;;5117171;28;20185;-90
2023/01/03 02:06:40;;;;;;;5.60;4.27;;;4.40;99.90;;;;;;5137395;28;20222;-89
2023/01/03 02:09:06;;;;;;;5.33;4.30;;;4.40;99.90;;;;;;5106177;28;20163;-92
2023/01/03 02:15:01;;;;;;;5.07;4.67;;;4.40;99.90;;;;;;5092328;28;20192;-92
2023/01/03 02:17:42;;;;;;;4.70;4.20;;;4.40;99.90;;;;;;5122739;28;20173;-96
2023/01/03 02:20:29;;;;;;;4.97;4.17;;;4.40;99.90;;;;;;5121196;28;20177;-95
2023/01/03 02:23:19;;;;;;;4.77;4.10;;;4.30;99.90;;;;;;5104899;28;20169;-93
2023/01/03 02:25:51;;;;;;;4.43;4.03;;;4.30;99.90;;;;;;5103588;28;20638;-91
2023/01/03 02:28:44;;;;;;;4.97;4.57;;;4.30;99.90;;;;;;5137029;28;20201;-86
2023/01/03 02:31:26;;;;;;;5.30;4.80;;;4.30;99.90;;;;;;5110225;28;20173;-86
2023/01/03 02:34:39;;;;;;;5.83;4.47;;;4.20;99.90;;;;;;5121458;28;20211;-89
2023/01/03 02:37:58;;;;;;;5.37;4.30;;;4.20;99.90;;;;;;4997655;28;20240;-88
2023/01/03 02:40:37;;;;;;;5.07;4.57;;;4.20;99.90;;;;;;4957086;29;20181;-85
2023/01/03 02:43:20;;;;;;;5.20;4.70;;;4.20;99.90;;;;;;5110361;28;20182;-87
2023/01/03 02:46:25;;;;;;;5.83;4.73;;;4.20;99.90;;;;;;5097749;28;20629;-87
2023/01/03 02:49:19;;;;;;;5.17;4.67;;;4.20;99.90;;;;;;5097282;28;20231;-89
2023/01/03 02:51:51;;;;;;;5.83;4.80;;;4.10;99.90;;;;;;5100679;28;20177;-89
2023/01/03 02:54:27;;;;;;;5.23;4.73;;;4.20;99.90;;;;;;5136166;27;20179;-84
2023/01/03 02:57:17;;;;;;;10.07;5.00;;;4.10;99.90;;;;;;5127997;28;20162;-89
2023/01/03 03:00:08;;;;;;;5.37;4.83;;;4.00;99.90;;;;;;5100823;28;20163;-87
2023/01/03 03:02:36;;;;;;;5.57;4.77;;;4.00;99.90;;;;;;5090594;28;20184;-86
2023/01/03 03:05:09;;;;;;;5.47;4.73;;;3.90;99.90;;;;;;5118156;28;20192;-87
2023/01/03 03:07:38;;;;;;;4.93;4.53;;;4.00;99.90;;;;;;5099109;28;20576;-88
2023/01/03 03:13:12;;;;;;;6.07;4.80;;;4.00;99.90;;;;;;5117417;28;20188;-85
2023/01/03 03:15:57;;;;;;;5.00;4.50;;;4.00;99.90;;;;;;5119390;28;20185;-91
2023/01/03 03:18:58;;;;;;;5.60;5.00;;;4.00;99.90;;;;;;5119619;28;20165;-88
2023/01/03 03:30:01;;;;;;;5.60;5.07;;;4.00;99.90;;;;;;5120846;28;20176;-88
2023/01/03 03:32:31;;;;;;;5.73;4.73;;;4.00;99.90;;;;;;5119971;28;20230;-94
2023/01/03 03:35:01;;;;;;;5.33;4.80;;;4.00;99.90;;;;;;5124641;28;20165;-87
2023/01/03 03:37:30;;;;;;;5.37;4.87;;;4.00;99.90;;;;;;5103521;28;20181;-82
2023/01/03 03:46:05;;;;;;;5.23;4.73;;;4.00;99.90;;;;;;5116987;28;20192;-89
2023/01/03 03:51:56;;;;;;;5.10;4.60;;;3.80;99.90;;;;;;5105177;28;20735;-87
2023/01/03 03:54:23;;;;;;;6.30;5.70;;;3.80;99.90;;;;;;5123033;28;20170;-89
2023/01/03 03:56:56;;;;;;;5.63;5.10;;;3.80;99.90;;;;;;5118185;28;20263;-92
2023/01/03 03:59:24;;;;;;;5.90;4.70;;;3.80;99.90;;;;;;5116076;28;20193;-95
2023/01/03 04:01:52;;;;;;;5.50;5.00;;;3.80;99.90;;;;;;5122946;28;20169;-91
2023/01/03 04:04:29;;;;;;;5.83;5.20;;;3.70;99.90;;;;;;5126329;28;20170;-90
2023/01/03 04:06:55;;;;;;;7.67;5.23;;;3.70;99.90;;;;;;5103557;28;20331;-90
2023/01/03 04:09:21;;;;;;;6.03;5.20;;;3.70;99.90;;;;;;5126334;28;20168;-90
2023/01/03 04:11:46;;;;;;;6.30;5.03;;;3.70;99.90;;;;;;5135810;28;20185;-84
2023/01/03 04:14:15;;;;;;;5.90;4.70;;;3.70;99.90;;;;;;5135844;28;20166;-88
2023/01/03 04:16:41;;;;;;;6.33;4.97;;;3.70;99.90;;;;;;5113347;28;20181;-90
2023/01/03 04:19:08;;;;;;;5.43;4.97;;;3.60;99.90;;;;;;5108229;28;20181;-88
2023/01/03 04:21:35;;;;;;;7.30;5.10;;;3.60;99.90;;;;;;5084877;28;20231;-91
2023/01/03 04:24:04;;;;;;;4.70;4.30;;;3.60;99.90;;;;;;5120837;28;20174;-93
2023/01/03 04:26:30;;;;;;;6.33;4.80;;;3.50;99.90;;;;;;5090118;28;20279;-91
2023/01/03 04:28:56;;;;;;;7.50;5.10;;;3.50;99.90;;;;;;5112642;28;20174;-91
2023/01/03 04:31:22;;;;;;;6.67;5.30;;;3.50;99.90;;;;;;5138270;27;20180;-85
2023/01/03 04:33:52;;;;;;;7.60;4.67;;;3.50;99.90;;;;;;5125245;28;20181;-87
2023/01/03 04:36:19;;;;;;;9.23;5.07;;;3.60;99.90;;;;;;5120937;28;20161;-83
2023/01/03 04:38:45;;;;;;;7.13;5.30;;;3.60;99.90;;;;;;5120155;28;20178;-87
2023/01/03 04:41:11;;;;;;;5.63;5.13;;;3.60;99.90;;;;;;5120388;28;20586;-91
2023/01/03 04:46:21;;;;;;;5.33;4.83;;;3.70;99.90;;;;;;5121718;28;20687;-91
2023/01/03 04:48:47;;;;;;;5.37;4.70;;;3.60;99.90;;;;;;5125689;28;20170;-93
2023/01/03 04:51:14;;;;;;;6.80;5.37;;;3.60;99.90;;;;;;5122192;28;20173;-89
2023/01/03 04:53:40;;;;;;;6.57;5.37;;;3.60;99.90;;;;;;5102940;28;20192;-91
2023/01/03 04:56:06;;;;;;;6.10;5.30;;;3.50;99.90;;;;;;5120631;28;20168;-92
2023/01/03 04:58:32;;;;;;;8.70;5.07;;;3.50;99.90;;;;;;5121872;28;20165;-95
2023/01/03 05:01:00;;;;;;;6.77;4.93;;;3.60;99.90;;;;;;5104215;28;20252;-91
2023/01/03 05:03:26;;;;;;;5.90;5.30;;;3.60;99.90;;;;;;5133484;28;20166;-89
2023/01/03 05:05:52;;;;;;;5.17;4.67;;;3.70;99.90;;;;;;5128642;28;20662;-90
2023/01/03 05:08:18;;;;;;;5.17;4.70;;;3.80;99.90;;;;;;5126031;28;20209;-91
2023/01/03 05:10:44;;;;;;;5.87;5.27;;;3.70;99.90;;;;;;5125100;28;20659;-92
2023/01/03 05:13:10;;;;;;;6.70;5.00;;;3.70;99.90;;;;;;5105205;28;20179;-92
2023/01/03 05:15:38;;;;;;;5.53;4.57;;;3.70;99.90;;;;;;5103147;28;20569;-89
2023/01/03 05:18:04;;;;;;;5.20;4.70;;;3.80;99.90;;;;;;5121724;28;20212;-91
2023/01/03 05:26:08;;;;;;;6.77;4.80;;;3.90;99.90;;;;;;5133251;28;20149;-86
2023/01/03 05:28:35;;;;;;;6.33;5.10;;;3.90;99.90;;;;;;5121623;27;20173;-91
2023/01/03 05:31:01;;;;;;;5.30;4.80;;;4.00;99.90;;;;;;5121898;28;20162;-86
2023/01/03 05:33:27;;;;;;;5.57;4.73;;;4.00;99.90;;;;;;5128265;27;20177;-93
2023/01/03 05:35:53;;;;;;;5.63;5.13;;;4.00;99.90;;;;;;5104638;27;20177;-88
2023/01/03 05:38:21;;;;;;;9.13;5.70;;;4.00;99.90;;;;;;5111929;28;20222;-94
2023/01/03 05:40:47;;;;;;;6.10;4.97;;;4.00;99.90;;;;;;5104912;28;20172;-92
2023/01/03 05:43:12;;;;;;;5.53;4.67;;;4.10;99.90;;;;;;5121219;28;20677;-95
2023/01/03 05:45:39;;;;;;;5.47;4.63;;;4.20;99.90;;;;;;5128126;28;20601;-89
2023/01/03 05:48:05;;;;;;;6.43;4.97;;;4.20;99.90;;;;;;5121949;28;20235;-91
2023/01/03 05:50:31;;;;;;;6.17;4.90;;;4.20;99.90;;;;;;5124005;28;20170;-93
2023/01/03 05:52:57;;;;;;;6.40;4.83;;;4.40;99.90;;;;;;5119865;28;20170;-93
2023/01/03 05:55:24;;;;;;;5.10;4.60;;;4.30;99.90;;;;;;5126172;28;20157;-94
2023/01/03 05:57:51;;;;;;;4.80;4.30;;;4.30;99.90;;;;;;5128021;27;20257;-84
2023/01/03 06:00:17;;;;;;;5.13;4.27;;;4.40;99.90;;;;;;5103203;28;20248;-89
2023/01/03 06:02:43;;;;;;;4.53;4.13;;;4.30;99.90;;;;;;5100135;28;20185;-92
2023/01/03 06:05:09;;;;;;;5.23;4.73;;;4.40;99.90;;;;;;5100994;28;20198;-86
2023/01/03 06:07:36;;;;;;;5.70;4.67;;;4.40;99.90;;;;;;5118790;28;20284;-90
2023/01/03 06:10:03;;;;;;;4.07;3.77;;;4.40;99.90;;;;;;5101063;28;20338;-92
2023/01/03 06:12:29;;;;;;;4.87;4.37;;;4.50;99.90;;;;;;5118161;28;20237;-88
2023/01/03 06:14:55;;;;;;;6.40;4.60;;;4.40;99.90;;;;;;5115826;28;20170;-87
2023/01/03 06:20:07;;;;;;;4.47;3.70;;;4.60;99.90;;;;;;5115073;28;20214;-86
2023/01/03 06:22:33;;;;;;;4.47;4.03;;;4.60;99.90;;;;;;5114743;28;20537;-84
2023/01/03 06:25:00;;;;;;;5.63;4.60;;;4.60;99.90;;;;;;5115263;28;20166;-86
2023/01/03 06:27:27;;;;;;;7.00;4.53;;;4.70;99.90;;;;;;5115617;28;20292;-86
2023/01/03 06:29:52;;;;;;;5.20;4.67;;;4.60;99.90;;;;;;5116090;28;20176;-85
2023/01/03 06:32:18;;;;;;;5.40;4.80;;;4.60;99.90;;;;;;5098527;28;20191;-83
2023/01/03 06:34:44;;;;;;;4.23;3.93;;;4.70;99.90;;;;;;5099025;28;20184;-91
2023/01/03 06:37:10;;;;;;;5.10;4.60;;;4.70;99.90;;;;;;5098996;28;20691;-86
2023/01/03 06:39:36;;;;;;;7.57;4.40;;;4.70;99.90;;;;;;5122815;28;20170;-85
2023/01/03 06:42:38;;;;;;;5.63;4.53;;;4.70;99.90;;;;;;5130382;28;20174;-92
2023/01/03 06:53:11;;;;;;;4.77;4.00;;;4.70;99.90;;;;;;5115298;28;20195;-87
2023/01/03 06:53:14;;;;;;;11.53;4.93;;;4.80;99.90;;;;;;5137263;27;20204;-89
2023/01/03 06:55:42;;;;;;;6.83;5.10;;;4.80;99.90;;;;;;5135195;28;20163;-86
2023/01/03 06:58:09;;;;;;;8.10;5.17;;;4.80;99.90;;;;;;5105064;28;20559;-88
2023/01/03 07:00:37;;;;;;;5.83;4.70;;;4.90;99.90;;;;;;5100348;28;20178;-89
2023/01/03 07:03:03;;;;;;;5.53;4.80;;;4.90;99.90;;;;;;5104693;28;20169;-94
2023/01/03 07:05:30;;;;;;;6.53;5.13;;;5.00;99.90;;;;;;5116184;28;20213;-91
2023/01/03 07:07:55;;;;;;;6.50;5.47;;;5.00;99.90;;;;;;5117807;28;20214;-89
2023/01/03 07:10:21;;;;;;;5.77;4.90;;;5.10;99.90;;;;;;5107395;28;20184;-86
2023/01/03 07:15:31;;;;;;;8.23;5.70;;;5.10;99.90;;;;;;5119456;28;20647;-95
2023/01/03 07:17:57;;;;;;;8.27;6.00;;;5.20;99.90;;;;;;5132181;28;20166;-92
2023/01/03 07:20:23;;;;;;;6.73;4.93;;;5.20;99.90;;;;;;5127259;28;20174;-88
2023/01/03 07:22:49;;;;;;;7.17;5.40;;;5.30;99.90;;;;;;5104111;28;20179;-93
2023/01/03 07:25:15;;;;;;;8.10;5.47;;;5.20;99.90;;;;;;5101808;28;20191;-92
2023/01/03 07:27:41;;;;;;;5.63;5.10;;;5.30;99.90;;;;;;5100834;28;20245;-87
2023/01/03 07:30:07;;;;;;;6.20;5.30;;;5.30;99.90;;;;;;5100805;28;20228;-92
2023/01/03 07:32:33;;;;;;;6.47;5.37;;;5.40;99.90;;;;;;5118237;28;20184;-93
2023/01/03 07:34:59;;;;;;;7.73;5.87;;;5.40;99.90;;;;;;5118292;28;20181;-93
2023/01/03 07:37:25;;;;;;;6.60;5.23;;;5.40;99.90;;;;;;5102705;28;20533;-93
2023/01/03 07:39:50;;;;;;;8.73;5.90;;;5.40;99.90;;;;;;5118979;28;20170;-93
2023/01/03 07:45:01;;;;;;;6.20;5.50;;;5.50;99.90;;;;;;5115484;28;20171;-88
2023/01/03 07:47:28;;;;;;;8.23;5.43;;;5.60;99.90;;;;;;5113685;28;20203;-85
2023/01/03 07:49:53;;;;;;;6.87;5.40;;;5.60;99.90;;;;;;5096194;28;20178;-87
2023/01/03 07:52:19;;;;;;;6.73;5.60;;;5.70;99.90;;;;;;5113963;28;20174;-86
2023/01/03 07:54:45;;;;;;;5.77;5.17;;;5.70;99.90;;;;;;5096081;28;20170;-84
2023/01/03 07:57:11;;;;;;;8.10;6.17;;;5.70;99.90;;;;;;5114434;28;20630;-84
2023/01/03 07:59:36;;;;;;;7.57;6.30;;;5.70;99.90;;;;;;5114801;28;20162;-85
2023/01/03 08:02:02;;;;;;;8.63;6.70;;;5.80;99.90;;;;;;5116191;28;20257;-85
2023/01/03 08:04:28;;;;;;;10.63;6.20;;;5.90;99.90;;;;;;5135780;27;20190;-84
2023/01/03 08:06:54;;;;;;;6.10;5.33;;;5.90;99.90;;;;;;5109637;28;20708;-86
2023/01/03 08:14:48;;;;;;;8.00;6.57;;;5.90;99.90;;;;;;5120160;28;20180;-85
2023/01/03 08:17:14;;;;;;;7.03;5.90;;;5.90;99.90;;;;;;5123745;28;20169;-83
2023/01/03 08:19:40;;;;;;;8.80;6.03;;;6.00;99.90;;;;;;5112378;28;20178;-91
2023/01/03 08:22:06;;;;;;;9.00;6.80;;;6.00;99.90;;;;;;5108564;28;20177;-93
2023/01/03 08:24:31;;;;;;;7.67;6.93;;;6.00;99.90;;;;;;5121763;28;20186;-89
2023/01/03 08:26:57;;;;;;;7.50;6.70;;;5.90;99.90;;;;;;5101681;28;20549;-90
2023/01/03 08:29:25;;;;;;;11.07;6.87;;;6.00;99.90;;;;;;5120997;28;20196;-93
2023/01/03 08:31:55;;;;;;;9.83;7.30;;;6.00;99.90;;;;;;5121349;28;20181;-89
2023/01/03 08:34:22;;;;;;;10.17;6.90;;;6.10;99.90;;;;;;5124336;28;20179;-88
2023/01/03 08:36:54;;;;;;;11.37;7.07;;;6.10;99.90;;;;;;5110002;28;20186;-87
2023/01/03 08:39:28;;;;;;;8.27;6.93;;;6.20;99.90;;;;;;5127400;28;20165;-86
2023/01/03 08:42:01;;;;;;;11.00;7.20;;;6.20;99.90;;;;;;5136502;28;20155;-85
2023/01/03 08:44:30;;;;;;;8.60;7.23;;;6.20;99.90;;;;;;5098000;28;20168;-89
2023/01/03 08:46:57;;;;;;;8.80;7.40;;;6.30;99.90;;;;;;5129296;28;20208;-92
2023/01/03 08:49:25;;;;;;;9.90;7.10;;;6.30;99.90;;;;;;5136836;28;20165;-85
2023/01/03 08:51:51;;;;;;;9.40;7.43;;;6.40;99.90;;;;;;5119576;28;20247;-88
2023/01/03 08:54:18;;;;;;;7.93;6.77;;;6.50;99.90;;;;;;5133063;28;20535;-87
2023/01/03 08:56:44;;;;;;;9.27;7.37;;;6.60;99.90;;;;;;5128992;28;20190;-87
2023/01/03 08:59:16;;;;;;;10.87;6.77;;;6.60;99.90;;;;;;5112402;28;20169;-85
2023/01/03 09:01:44;;;;;;;8.17;6.50;;;6.70;99.90;;;;;;5134927;28;20226;-89
2023/01/03 09:04:12;;;;;;;9.77;6.47;;;6.70;99.90;;;;;;5123152;28;20167;-93
2023/01/03 09:06:38;;;;;;;6.47;5.60;;;6.70;99.90;;;;;;5117902;28;20226;-90
2023/01/03 09:09:05;;;;;;;6.70;5.70;;;6.70;99.90;;;;;;5099860;28;20175;-90
2023/01/03 09:11:31;;;;;;;7.57;6.30;;;6.70;99.90;;;;;;5100060;28;20184;-88
2023/01/03 09:13:58;;;;;;;7.70;5.70;;;6.80;99.90;;;;;;5124235;28;20171;-92
2023/01/03 09:16:24;;;;;;;6.73;5.70;;;6.90;99.90;;;;;;5116964;28;20156;-86
2023/01/03 09:18:49;;;;;;;7.83;6.23;;;7.00;99.90;;;;;;5140169;27;20184;-90
2023/01/03 09:21:15;;;;;;;9.27;6.93;;;7.00;99.90;;;;;;5132656;28;20179;-88
2023/01/03 09:23:41;;;;;;;9.23;7.47;;;7.10;99.90;;;;;;5138592;27;20163;-90
2023/01/03 09:26:07;;;;;;;10.40;8.27;;;7.20;99.90;;;;;;5138793;27;20188;-86
2023/01/03 09:28:33;;;;;;;10.77;8.67;;;7.20;99.90;;;;;;5116986;28;20176;-84
2023/01/03 09:30:59;;;;;;;13.67;8.73;;;7.20;99.90;;;;;;5110459;28;20318;-84
2023/01/03 09:33:25;;;;;;;12.27;9.17;;;7.00;99.90;;;;;;5119486;28;20179;-85
2023/01/03 09:35:53;;;;;;;12.07;9.30;;;7.00;99.90;;;;;;5100330;28;20180;-87
2023/01/03 09:38:19;;;;;;;14.13;9.03;;;6.90;99.90;;;;;;5117154;28;20202;-85
2023/01/03 09:40:46;;;;;;;17.20;9.50;;;6.90;99.90;;;;;;5098549;28;20632;-85
2023/01/03 09:43:18;;;;;;;14.10;9.60;;;6.80;99.90;;;;;;5098005;28;20178;-83
2023/01/03 09:45:51;;;;;;;19.80;10.50;;;6.80;99.90;;;;;;5105970;28;20243;-88
2023/01/03 09:48:30;;;;;;;12.53;9.60;;;6.70;99.90;;;;;;5122087;28;20742;-86
2023/01/03 09:50:57;;;;;;;13.13;9.67;;;6.70;99.90;;;;;;5121410;28;20571;-84
2023/01/03 10:05:02;;;;;;;13.83;10.20;;;6.70;99.90;;;;;;5121243;28;20276;-85
2023/01/03 10:07:46;;;;;;;17.50;10.07;;;6.70;99.90;;;;;;5114209;28;20232;-85
2023/01/03 10:10:35;;;;;;;14.23;9.63;;;6.70;99.90;;;;;;5109543;28;20235;-85
2023/01/03 10:13:18;;;;;;;14.43;9.60;;;6.70;99.90;;;;;;5128395;28;20196;-85
2023/01/03 10:16:25;;;;;;;13.17;9.57;;;6.80;99.90;;;;;;5129100;28;20169;-85
2023/01/03 10:19:20;;;;;;;14.50;9.07;;;6.80;99.90;;;;;;5128449;28;20151;-86
2023/01/03 10:22:08;;;;;;;15.00;10.37;;;6.80;99.90;;;;;;5108671;28;20169;-85
2023/01/03 10:24:55;;;;;;;13.90;9.70;;;6.90;99.90;;;;;;5111300;28;20183;-85
2023/01/03 10:27:26;;;;;;;13.87;10.00;;;6.90;99.90;;;;;;5125717;28;20196;-87
2023/01/03 10:29:58;;;;;;;14.27;9.30;;;7.00;99.90;;;;;;5112690;28;20174;-83
2023/01/03 10:32:57;;;;;;;11.50;9.33;;;7.00;99.90;;;;;;5115841;28;20182;-86
2023/01/03 10:35:35;;;;;;;17.30;10.80;;;7.00;99.90;;;;;;5037470;28;20189;-86
2023/01/03 10:38:02;;;;;;;15.83;10.47;;;7.00;99.90;;;;;;5015259;28;20160;-87
2023/01/03 10:40:35;;;;;;;15.20;9.83;;;7.10;99.90;;;;;;5011601;28;20192;-86
2023/01/03 10:43:32;;;;;;;14.63;10.90;;;7.10;99.90;;;;;;5022868;28;20667;-84
2023/01/03 10:46:17;;;;;;;14.50;11.17;;;7.20;99.90;;;;;;5020174;28;20204;-84
2023/01/03 10:48:46;;;;;;;19.30;11.70;;;7.10;99.90;;;;;;5020509;28;20250;-86
2023/01/03 10:51:27;;;;;;;17.33;11.07;;;7.10;99.90;;;;;;5003455;28;20185;-87
2023/01/03 10:54:10;;;;;;;14.50;10.10;;;7.20;99.90;;;;;;5016576;28;20185;-86
2023/01/03 10:56:36;;;;;;;28.90;14.17;;;7.20;99.90;;;;;;5001896;28;20175;-88
2023/01/03 10:59:24;;;;;;;28.17;13.37;;;7.20;99.90;;;;;;5003227;28;20184;-85
2023/01/03 11:02:00;;;;;;;19.57;11.83;;;7.20;99.90;;;;;;5027252;28;20226;-93
2023/01/03 11:04:27;;;;;;;18.30;11.77;;;7.20;99.90;;;;;;5027194;28;20172;-89
2023/01/03 11:07:08;;;;;;;22.30;12.13;;;7.30;99.90;;;;;;5010441;28;20726;-92
2023/01/03 11:09:53;;;;;;;17.30;11.30;;;7.30;99.90;;;;;;5032484;28;20191;-92
2023/01/03 11:12:41;;;;;;;17.60;11.63;;;7.30;99.90;;;;;;5070149;28;20189;-91
2023/01/03 11:15:29;;;;;;;16.87;10.63;;;7.30;99.90;;;;;;5097240;28;20668;-86
2023/01/03 11:18:01;;;;;;;14.87;10.83;;;7.40;99.90;;;;;;5093935;28;20220;-86
2023/01/03 11:20:40;;;;;;;14.80;10.40;;;7.40;99.90;;;;;;5093315;28;20173;-87
2023/01/03 11:23:37;;;;;;;16.77;11.20;;;7.40;99.90;;;;;;5092826;28;20635;-84
2023/01/03 11:26:03;;;;;;;15.40;11.37;;;7.40;99.90;;;;;;5092771;28;20175;-85
2023/01/03 11:28:56;;;;;;;16.87;11.37;;;7.50;99.90;;;;;;5097398;28;20285;-90
2023/01/03 11:31:39;;;;;;;12.80;10.07;;;7.50;99.90;;;;;;5092987;28;20649;-86
2023/01/03 11:34:26;;;;;;;16.10;11.43;;;7.30;99.90;;;;;;5094533;28;20629;-86
2023/01/03 11:37:23;;;;;;;12.57;10.53;;;7.30;99.90;;;;;;5105870;28;20191;-88
2023/01/03 11:39:55;;;;;;;12.13;9.93;;;7.30;99.90;;;;;;5113722;28;20214;-85
2023/01/03 11:42:48;;;;;;;14.13;10.60;;;7.30;99.90;;;;;;5116748;28;20164;-84
2023/01/03 11:45:49;;;;;;;13.30;9.70;;;7.30;99.90;;;;;;5108587;28;20191;-87
2023/01/03 11:48:23;;;;;;;14.57;9.87;;;7.30;99.90;;;;;;5101075;28;20200;-85
2023/01/03 11:51:00;;;;;;;15.47;10.27;;;7.20;99.90;;;;;;5100406;28;20173;-92
2023/01/03 11:53:36;;;;;;;14.43;10.33;;;7.20;99.90;;;;;;5111661;28;20167;-86
2023/01/03 11:56:28;;;;;;;14.60;10.47;;;7.20;99.90;;;;;;5104343;28;20566;-89
2023/01/03 11:59:20;;;;;;;16.60;10.33;;;7.20;99.90;;;;;;5101620;28;20173;-88
2023/01/03 12:02:07;;;;;;;14.07;9.63;;;7.10;99.90;;;;;;5097665;28;20190;-86
2023/01/03 12:04:36;;;;;;;13.63;9.57;;;7.10;99.90;;;;;;5100816;28;20172;-90
2023/01/03 12:07:21;;;;;;;11.97;9.77;;;7.00;99.90;;;;;;5102902;28;20266;-92
2023/01/03 12:10:04;;;;;;;11.50;8.97;;;7.00;99.90;;;;;;5106860;28;20640;-85
2023/01/03 12:12:59;;;;;;;14.33;10.37;;;7.00;99.90;;;;;;5110119;28;20218;-85
2023/01/03 12:15:57;;;;;;;16.00;10.00;;;6.90;99.90;;;;;;5098810;28;20162;-87
2023/01/03 12:18:41;;;;;;;13.83;9.50;;;6.80;99.90;;;;;;5097963;28;20195;-87
2023/01/03 12:21:19;;;;;;;14.37;9.87;;;6.80;99.90;;;;;;5106195;28;20188;-84
2023/01/03 12:23:54;;;;;;;13.63;9.10;;;6.90;99.90;;;;;;5105813;28;20212;-85
2023/01/03 12:26:23;;;;;;;12.13;9.03;;;6.80;99.90;;;;;;5102365;28;20176;-91
2023/01/03 12:29:01;;;;;;;11.90;9.43;;;6.80;99.90;;;;;;5113766;28;20216;-86
2023/01/03 12:31:38;;;;;;;10.73;8.33;;;6.80;99.90;;;;;;5115742;28;20190;-91
2023/01/03 12:34:25;;;;;;;19.27;9.50;;;6.80;99.90;;;;;;5104431;28;20240;-93
2023/01/03 12:37:12;;;;;;;16.87;9.43;;;6.80;99.90;;;;;;5118676;28;20228;-83
2023/01/03 12:40:02;;;;;;;23.03;11.70;;;6.70;99.90;;;;;;5120194;28;20169;-85
2023/01/03 12:42:52;;;;;;;20.83;11.37;;;6.80;99.90;;;;;;5118165;28;20167;-85
2023/01/03 12:45:26;;;;;;;18.50;10.40;;;6.70;99.90;;;;;;5117326;28;20164;-87
2023/01/03 12:48:10;;;;;;;14.00;9.53;;;6.70;99.90;;;;;;5121645;28;20220;-86
2023/01/03 12:50:50;;;;;;;17.30;10.27;;;6.80;99.90;;;;;;5118584;28;20170;-91
2023/01/03 12:53:43;;;;;;;14.80;8.43;;;6.70;99.90;;;;;;5119333;28;20179;-85
2023/01/03 12:56:21;;;;;;;11.77;8.67;;;6.70;99.90;;;;;;5107890;28;20166;-90
2023/01/03 12:59:24;;;;;;;13.57;9.20;;;6.60;99.90;;;;;;5101905;28;20275;-85
2023/01/03 13:01:57;;;;;;;16.37;9.43;;;6.60;99.90;;;;;;5107678;28;20189;-87
2023/01/03 13:04:35;;;;;;;15.37;10.07;;;6.50;99.90;;;;;;5119533;28;20187;-84
2023/01/03 13:07:24;;;;;;;18.83;10.57;;;6.50;99.90;;;;;;5112232;28;20231;-85
2023/01/03 13:10:13;;;;;;;13.33;10.47;;;6.60;99.90;;;;;;5110931;28;20235;-84
2023/01/03 13:12:54;;;;;;;11.73;9.60;;;6.60;99.90;;;;;;5110836;28;20171;-85
2023/01/03 13:15:35;;;;;;;13.57;9.13;;;6.70;99.90;;;;;;5107192;28;20158;-85
2023/01/03 13:18:23;;;;;;;15.07;10.03;;;6.80;99.90;;;;;;5081781;28;20265;-83
2023/01/03 13:20:56;;;;;;;15.40;10.40;;;6.90;99.90;;;;;;5084517;28;20279;-87
2023/01/03 13:23:39;;;;;;;14.53;10.37;;;6.90;99.90;;;;;;5084377;28;20179;-83
2023/01/03 13:26:21;;;;;;;14.20;11.03;;;7.00;99.90;;;;;;5077254;22;20292;-85
2023/01/03 13:28:50;;;;;;;16.90;10.40;;;7.00;99.90;;;;;;5041034;28;20243;-83
2023/01/03 13:31:16;;;;;;;12.67;10.27;;;7.00;99.90;;;;;;5056690;28;20235;-82
2023/01/03 13:33:55;;;;;;;13.23;9.90;;;7.00;99.90;;;;;;5056988;28;20254;-85
2023/01/03 13:36:47;;;;;;;14.80;10.33;;;7.10;99.90;;;;;;5055414;28;20169;-90
2023/01/03 13:39:37;;;;;;;12.67;9.60;;;7.20;99.90;;;;;;5040410;28;20185;-93
2023/01/03 13:42:05;;;;;;;11.73;9.17;;;7.20;99.90;;;;;;5034728;28;20621;-86
2023/01/03 13:44:32;;;;;;;16.47;10.03;;;7.30;99.90;;;;;;5054510;28;20176;-87
2023/01/03 13:46:59;;;;;;;13.53;9.87;;;7.40;99.90;;;;;;5067081;28;20254;-86
2023/01/03 13:49:27;;;;;;;14.00;10.47;;;7.40;99.90;;;;;;5067444;28;20177;-89
2023/01/03 13:51:58;;;;;;;15.07;11.20;;;7.50;99.90;;;;;;5053631;28;20258;-87
2023/01/03 13:54:44;;;;;;;17.60;10.40;;;7.70;99.90;;;;;;5044497;28;20503;-87
2023/01/03 13:57:37;;;;;;;13.83;10.37;;;7.50;99.90;;;;;;5053218;28;20261;-85
2023/01/03 14:00:17;;;;;;;15.23;9.90;;;7.50;99.90;;;;;;5071880;28;20159;-86
2023/01/03 14:03:08;;;;;;;18.67;11.00;;;7.50;99.90;;;;;;5065264;28;20251;-86
2023/01/03 14:05:53;;;;;;;16.47;10.77;;;7.50;99.90;;;;;;5062870;28;20229;-86
2023/01/03 14:08:34;;;;;;;13.97;10.37;;;7.50;99.90;;;;;;5065293;28;20198;-86
2023/01/03 14:11:43;;;;;;;16.87;10.63;;;7.50;99.90;;;;;;5060150;28;20185;-86
2023/01/03 14:14:15;;;;;;;11.63;9.87;;;7.50;99.90;;;;;;4976835;28;20205;-87
2023/01/03 14:16:53;;;;;;;17.27;10.37;;;7.60;99.90;;;;;;4959545;28;20280;-84
2023/01/03 14:19:36;;;;;;;14.87;10.03;;;7.60;99.90;;;;;;4977179;28;20695;-85
2023/01/03 14:22:20;;;;;;;15.57;10.23;;;7.60;99.90;;;;;;4971692;28;20708;-89
2023/01/03 14:24:53;;;;;;;15.60;10.10;;;7.60;99.90;;;;;;4973295;28;20678;-88
2023/01/03 14:27:23;;;;;;;13.90;9.93;;;7.70;99.90;;;;;;4989873;28;20202;-89
2023/01/03 14:29:53;;;;;;;15.23;10.67;;;7.70;99.90;;;;;;4992353;28;20169;-89
2023/01/03 14:32:25;;;;;;;15.47;10.80;;;7.70;99.90;;;;;;4980289;28;20258;-91